Time;durP1;ratioP1;P1;durP2;ratioP2;P2;SDS_P1;SDS_P2;PMS_P1;PMS_P2;Temp;Humidity;BMP_temperature;BMP_pressure;BME280_temperature;BME280_humidity;BME280_pressure;Samples;Min_cycle;Max_cycle;Signal;HPM_P1;HPM_P2
2023/10/21 00:00:18;;;;;;;36.72;17.77;;;;;;;11.41;100.00;98026.19;5032346;28;20472;-54
2023/10/21 00:02:44;;;;;;;31.00;16.10;;;;;;;11.75;100.00;98086.63;5030293;28;20041;-54
2023/10/21 00:05:09;;;;;;;28.25;15.65;;;;;;;11.67;100.00;98086.38;5032299;28;20041;-55
2023/10/21 00:07:34;;;;;;;40.10;16.95;;;;;;;11.49;100.00;98042.22;5031721;28;20041;-51
2023/10/21 00:09:59;;;;;;;33.50;16.13;;;;;;;11.50;100.00;98049.97;5032659;28;20064;-56
2023/10/21 00:12:25;;;;;;;30.55;15.45;;;;;;;11.79;100.00;98103.84;5030326;28;20397;-54
2023/10/21 00:14:51;;;;;;;33.67;16.35;;;;;;;11.77;100.00;98092.59;5032120;28;20034;-53
2023/10/21 00:17:16;;;;;;;34.92;17.08;;;;;;;11.48;100.00;98041.38;5030753;28;20052;-55
2023/10/21 00:19:41;;;;;;;30.58;16.10;;;;;;;11.82;100.00;98108.06;5031910;28;20044;-55
2023/10/21 00:22:07;;;;;;;32.55;15.45;;;;;;;11.77;100.00;98108.41;5031939;28;20040;-54
2023/10/21 00:24:32;;;;;;;37.80;17.15;;;;;;;11.73;100.00;98100.91;5031675;28;20040;-51
2023/10/21 00:26:57;;;;;;;31.52;15.57;;;;;;;11.71;100.00;98114.19;5030427;28;20144;-54
2023/10/21 00:29:23;;;;;;;35.22;16.50;;;;;;;11.59;100.00;98094.03;5013860;28;20076;-52
2023/10/21 00:31:48;;;;;;;32.55;15.95;;;;;;;11.82;100.00;98114.16;5032136;28;20160;-56
2023/10/21 00:34:13;;;;;;;41.60;16.60;;;;;;;11.89;100.00;98113.66;5031864;28;20038;-54
2023/10/21 00:36:39;;;;;;;35.80;16.50;;;;;;;11.91;100.00;98123.09;5032185;28;20386;-54
2023/10/21 00:39:10;;;;;;;31.50;17.27;;;;;;;11.91;100.00;98128.38;5031822;28;20061;-53
2023/10/21 00:41:36;;;;;;;39.47;17.23;;;;;;;11.96;100.00;98128.88;5031996;28;20037;-56
2023/10/21 00:44:01;;;;;;;29.30;14.90;;;;;;;11.65;100.00;98074.25;5031689;28;20428;-52
2023/10/21 00:46:27;;;;;;;38.50;16.08;;;;;;;12.03;100.00;98137.09;5030181;28;20079;-54
2023/10/21 00:48:52;;;;;;;28.67;15.57;;;;;;;11.70;100.00;98075.59;5031725;28;20492;-53
2023/10/21 00:51:19;;;;;;;30.20;14.00;;;;;;;11.93;100.00;98121.22;5031864;28;20398;-51
2023/10/21 00:53:44;;;;;;;26.15;15.07;;;;;;;11.75;100.00;98091.06;5046845;28;20069;-54
2023/10/21 00:56:10;;;;;;;37.47;15.93;;;;;;;12.06;100.00;98152.66;5030569;28;20042;-54
2023/10/21 00:58:36;;;;;;;30.58;15.05;;;;;;;12.03;100.00;98163.47;5031866;28;20106;-54
2023/10/21 01:01:09;;;;;;;31.45;14.60;;;;;;;11.67;100.00;98109.25;5031803;28;20025;-55
2023/10/21 01:03:35;;;;;;;31.08;14.48;;;;;;;11.63;100.00;98097.28;5044961;28;20432;-53
2023/10/21 01:06:01;;;;;;;34.40;15.75;;;;;;;11.61;100.00;98101.84;5030224;28;20388;-53
2023/10/21 01:08:26;;;;;;;30.20;15.90;;;;;;;11.95;100.00;98156.19;5030458;28;20033;-55
2023/10/21 01:10:52;;;;;;;29.55;16.23;;;;;;;11.58;100.00;98108.19;5031896;28;20370;-51
2023/10/21 01:13:17;;;;;;;37.28;16.65;;;;;;;11.80;100.00;98142.44;5031759;28;20034;-54
2023/10/21 01:15:43;;;;;;;33.13;16.55;;;;;;;11.95;100.00;98166.72;5031630;28;20074;-49
2023/10/21 01:18:08;;;;;;;33.45;15.35;;;;;;;11.54;100.00;98104.09;5030539;28;20033;-52
2023/10/21 01:20:39;;;;;;;30.52;16.40;;;;;;;11.61;100.00;98125.53;5031285;28;20034;-56
2023/10/21 01:23:04;;;;;;;29.98;15.00;;;;;;;11.90;100.00;98178.59;5050137;28;20084;-55
2023/10/21 01:25:30;;;;;;;38.92;16.63;;;;;;;11.53;100.00;98109.53;5034242;28;20049;-54
2023/10/21 01:27:57;;;;;;;35.45;16.38;;;;;;;11.92;100.00;98184.56;5034503;28;20042;-55
2023/10/21 01:30:23;;;;;;;33.47;17.00;;;;;;;11.58;100.00;98129.28;5034778;28;20404;-53
2023/10/21 01:32:48;;;;;;;30.00;16.33;;;;;;;11.85;100.00;98178.94;5034981;28;20033;-53
2023/10/21 01:35:17;;;;;;;26.88;15.73;;;;;;;11.57;100.00;98151.28;5032421;28;20037;-52
2023/10/21 01:37:44;;;;;;;36.03;16.63;;;;;;;11.61;100.00;98152.75;5050422;28;20499;-53
2023/10/21 01:40:10;;;;;;;30.88;16.30;;;;;;;11.78;100.00;98186.53;5034925;28;20124;-56
2023/10/21 01:42:36;;;;;;;36.42;16.77;;;;;;;11.48;100.00;98130.94;5034745;28;20562;-54
2023/10/21 01:45:04;;;;;;;35.63;16.77;;;;;;;11.48;100.00;98125.66;5035021;28;20069;-55
2023/10/21 01:47:30;;;;;;;37.65;17.63;;;;;;;11.77;100.00;98176.94;5034829;28;20065;-53
2023/10/21 01:49:55;;;;;;;30.38;16.45;;;;;;;11.84;100.00;98193.09;5034906;28;20072;-53
2023/10/21 01:52:20;;;;;;;41.13;17.75;;;;;;;11.80;100.00;98205.69;5032883;28;20557;-56
2023/10/21 01:54:46;;;;;;;38.33;16.83;;;;;;;11.76;100.00;98201.59;5034498;28;20034;-56
2023/10/21 01:57:11;;;;;;;50.63;19.83;;;;;;;11.42;100.00;98146.38;5033686;28;20030;-53
2023/10/21 01:59:39;;;;;;;33.55;17.17;;;;;;;11.68;100.00;98200.50;5034643;28;20071;-54
2023/10/21 02:02:05;;;;;;;41.65;18.67;;;;;;;11.73;100.00;98207.09;5034526;28;20091;-54
2023/10/21 02:04:30;;;;;;;39.65;18.65;;;;;;;11.74;100.00;98218.50;5034169;28;20189;-56
2023/10/21 02:06:56;;;;;;;37.42;19.52;;;;;;;11.37;100.00;98148.53;5034433;28;20102;-54
2023/10/21 02:09:21;;;;;;;43.58;19.85;;;;;;;11.75;100.00;98222.81;5032594;28;20038;-53
2023/10/21 02:11:47;;;;;;;36.67;19.05;;;;;;;11.75;100.00;98234.22;5034259;28;20037;-58
2023/10/21 02:14:13;;;;;;;50.10;21.05;;;;;;;11.72;100.00;98220.41;5034213;28;20052;-57
2023/10/21 02:16:38;;;;;;;45.80;20.23;;;;;;;11.80;100.00;98234.69;5034363;28;20116;-56
2023/10/21 02:19:03;;;;;;;39.67;20.02;;;;;;;11.41;100.00;98161.38;5033057;28;20052;-56
2023/10/21 02:21:29;;;;;;;41.70;21.00;;;;;;;11.89;100.00;98240.19;5034018;28;20079;-56
2023/10/21 02:23:54;;;;;;;42.92;22.23;;;;;;;11.61;100.00;98204.59;5033831;28;20029;-53
2023/10/21 02:26:19;;;;;;;43.10;20.75;;;;;;;11.56;100.00;98191.75;5032308;28;20042;-56
2023/10/21 02:28:45;;;;;;;48.63;21.88;;;;;;;11.80;100.00;98229.41;5034017;28;20037;-54
2023/10/21 02:31:10;;;;;;;49.45;22.67;;;;;;;11.80;100.00;98228.56;5034135;28;20045;-57
2023/10/21 02:33:36;;;;;;;47.15;21.83;;;;;;;11.93;100.00;98249.53;5033734;28;20432;-55
2023/10/21 02:36:01;;;;;;;39.15;20.42;;;;;;;11.60;100.00;98205.53;5033673;28;20045;-54
2023/10/21 02:38:26;;;;;;;39.40;19.63;;;;;;;11.84;100.00;98244.03;5033750;28;20040;-57
2023/10/21 02:40:52;;;;;;;43.97;20.73;;;;;;;11.61;100.00;98196.69;5033453;28;20087;-53
2023/10/21 02:43:17;;;;;;;37.78;19.42;;;;;;;11.52;100.00;98186.84;5031056;28;20124;-55
2023/10/21 02:45:43;;;;;;;36.15;18.48;;;;;;;11.60;100.00;98197.63;5033443;28;20037;-50
2023/10/21 02:48:08;;;;;;;43.00;20.67;;;;;;;11.95;100.00;98261.63;5048713;28;20037;-56
2023/10/21 02:50:33;;;;;;;41.13;19.70;;;;;;;11.97;100.00;98257.06;5033382;28;20124;-55
2023/10/21 02:52:59;;;;;;;40.30;19.67;;;;;;;11.63;100.00;98203.50;5033510;28;20056;-54
2023/10/21 02:55:27;;;;;;;37.25;20.02;;;;;;;11.97;100.00;98272.03;5033280;28;20049;-55
2023/10/21 02:57:53;;;;;;;37.15;19.15;;;;;;;11.82;100.00;98248.56;5033938;28;20033;-52
2023/10/21 03:00:21;;;;;;;39.97;19.77;;;;;;;11.58;100.00;98213.56;5032044;28;20112;-53
2023/10/21 03:02:48;;;;;;;34.80;18.23;;;;;;;11.53;100.00;98220.16;5033499;28;20412;-55
2023/10/21 03:05:15;;;;;;;45.90;18.45;;;;;;;11.55;100.00;98234.88;5033427;28;20443;-57
2023/10/21 03:07:41;;;;;;;35.08;17.83;;;;;;;11.76;100.00;98264.03;5033248;28;20120;-53
2023/10/21 03:10:06;;;;;;;35.60;17.27;;;;;;;11.71;100.00;98268.81;5032959;28;20192;-52
2023/10/21 03:12:32;;;;;;;30.80;16.75;;;;;;;11.78;100.00;98294.59;5033143;28;20465;-56
2023/10/21 03:14:58;;;;;;;41.65;16.17;;;;;;;11.78;100.00;98291.94;5031963;28;20037;-56
2023/10/21 03:17:23;;;;;;;28.13;15.10;;;;;;;11.74;100.00;98290.50;5031582;28;20067;-57
2023/10/21 03:19:49;;;;;;;30.42;16.00;;;;;;;11.48;100.00;98251.25;5032112;28;20045;-55
2023/10/21 03:22:15;;;;;;;28.88;16.42;;;;;;;11.44;100.00;98239.31;5033020;28;20037;-57
2023/10/21 03:24:40;;;;;;;30.42;16.80;;;;;;;11.46;100.00;98242.66;5033137;28;20079;-55
2023/10/21 03:27:06;;;;;;;41.30;17.40;;;;;;;11.69;100.00;98290.03;5031801;28;20037;-55
2023/10/21 03:29:31;;;;;;;34.65;17.58;;;;;;;11.67;100.00;98286.63;5033052;28;20472;-56
2023/10/21 03:31:56;;;;;;;29.52;16.75;;;;;;;11.73;100.00;98309.88;5031788;28;20045;-57
2023/10/21 03:34:22;;;;;;;29.58;16.80;;;;;;;11.69;100.00;98304.94;5030840;28;20507;-53
2023/10/21 03:36:47;;;;;;;31.33;17.77;;;;;;;11.64;100.00;98300.06;5032700;28;20053;-55
2023/10/21 03:39:13;;;;;;;35.33;17.42;;;;;;;11.34;100.00;98254.13;5048135;28;20045;-53
2023/10/21 03:41:38;;;;;;;35.47;19.25;;;;;;;11.68;100.00;98325.19;5031394;28;20041;-55
2023/10/21 03:44:04;;;;;;;33.25;16.95;;;;;;;11.68;100.00;98329.63;5032352;28;20402;-54
2023/10/21 03:46:30;;;;;;;36.45;17.83;;;;;;;11.56;100.00;98325.28;5015949;28;20065;-55
2023/10/21 03:48:56;;;;;;;32.92;16.95;;;;;;;11.53;100.00;98313.19;5027729;28;20034;-50
2023/10/21 03:51:21;;;;;;;37.08;17.33;;;;;;;11.20;100.00;98263.91;5012786;28;20129;-54
2023/10/21 03:53:47;;;;;;;32.33;17.23;;;;;;;11.22;100.00;98284.84;5014093;28;20049;-57
2023/10/21 03:56:13;;;;;;;38.60;18.30;;;;;;;11.32;100.00;98299.03;5011391;28;20509;-54
2023/10/21 03:58:39;;;;;;;36.58;17.15;;;;;;;11.44;100.00;98336.75;5012542;28;20045;-51
2023/10/21 04:01:05;;;;;;;32.90;16.63;;;;;;;11.13;100.00;98293.44;5043954;28;20029;-56
2023/10/21 04:03:30;;;;;;;38.15;17.70;;;;;;;11.43;100.00;98356.16;5012961;28;20542;-54
2023/10/21 04:05:56;;;;;;;34.88;17.15;;;;;;;11.35;100.00;98346.19;5016818;28;20377;-53
2023/10/21 04:08:23;;;;;;;29.33;18.00;;;;;;;11.29;100.00;98339.56;5009388;28;20397;-55
2023/10/21 04:10:49;;;;;;;36.90;17.80;;;;;;;11.21;100.00;98344.56;5023103;28;20231;-53
2023/10/21 04:13:15;;;;;;;34.28;19.52;;;;;;;10.99;100.00;98304.16;5021214;28;20030;-54
2023/10/21 04:15:40;;;;;;;30.92;18.27;;;;;;;11.02;100.00;98323.19;5027748;28;20032;-53
2023/10/21 04:18:05;;;;;;;33.88;17.80;;;;;;;11.30;100.00;98356.22;5044267;28;20092;-56
2023/10/21 04:20:34;;;;;;;42.30;19.63;;;;;;;11.32;100.00;98364.84;5010971;28;20034;-54
2023/10/21 04:22:59;;;;;;;37.92;19.40;;;;;;;11.27;100.00;98370.44;5053941;28;20041;-54
2023/10/21 04:25:25;;;;;;;43.72;19.58;;;;;;;11.27;100.00;98382.78;5012783;28;20389;-55
2023/10/21 04:27:50;;;;;;;37.80;19.30;;;;;;;11.11;100.00;98369.06;5014608;28;20037;-53
2023/10/21 04:30:16;;;;;;;33.95;19.05;;;;;;;10.80;100.00;98322.25;5027620;28;20457;-53
2023/10/21 04:32:41;;;;;;;46.47;20.70;;;;;;;11.13;100.00;98393.47;5029513;28;20036;-52
2023/10/21 04:35:08;;;;;;;37.08;18.25;;;;;;;11.13;100.00;98393.47;5031604;28;20045;-54
2023/10/21 04:37:34;;;;;;;34.10;18.08;;;;;;;11.06;100.00;98393.09;5025837;28;20085;-55
2023/10/21 04:39:59;;;;;;;36.60;17.63;;;;;;;11.16;100.00;98404.63;4992830;28;20030;-52
2023/10/21 04:42:24;;;;;;;38.90;19.13;;;;;;;11.11;100.00;98377.81;5007568;28;20493;-55
2023/10/21 04:44:51;;;;;;;32.33;14.95;;;;;;;11.06;100.00;98348.31;4998930;28;20038;-54
2023/10/21 04:47:17;;;;;;;36.67;16.00;;;;;;;11.47;100.00;98394.50;5031714;28;20392;-57
2023/10/21 04:49:45;;;;;;;28.55;13.40;;;;;;;11.70;100.00;98414.72;5031821;28;20037;-54
2023/10/21 04:52:11;;;;;;;29.70;13.35;;;;;;;11.45;100.00;98365.59;5019688;28;20121;-57
2023/10/21 04:54:36;;;;;;;27.85;14.15;;;;;;;11.45;100.00;98346.31;5029715;28;20112;-53
2023/10/21 04:57:02;;;;;;;27.80;14.05;;;;;;;11.62;100.00;98352.00;5017517;28;20524;-50
2023/10/21 04:59:27;;;;;;;22.60;13.23;;;;;;;12.12;100.00;98431.69;5015509;28;20056;-55
2023/10/21 05:01:52;;;;;;;25.88;13.15;;;;;;;12.19;100.00;98432.91;5015986;28;20124;-54
2023/10/21 05:04:18;;;;;;;19.98;11.80;;;;;;;12.01;100.00;98394.75;5031286;28;20041;-53
2023/10/21 05:06:43;;;;;;;20.52;11.27;;;;;;;11.97;100.00;98394.16;5014717;28;20124;-55
2023/10/21 05:09:10;;;;;;;20.45;11.35;;;;;;;11.95;100.00;98385.53;5028922;28;20164;-54
2023/10/21 05:11:35;;;;;;;19.60;11.45;;;;;;;12.28;100.00;98427.78;5024751;28;20057;-56
2023/10/21 05:14:00;;;;;;;20.88;11.68;;;;;;;12.43;100.00;98455.59;5018128;28;20489;-51
2023/10/21 05:16:26;;;;;;;21.48;11.75;;;;;;;12.45;100.00;98459.91;5016194;28;20044;-54
2023/10/21 05:18:51;;;;;;;17.30;10.75;;;;;;;12.15;100.00;98410.34;5027981;28;20041;-51
2023/10/21 05:21:16;;;;;;;18.92;11.27;;;;;;;12.37;100.00;98445.50;5029717;28;20036;-56
2023/10/21 05:23:42;;;;;;;17.80;10.75;;;;;;;12.01;100.00;98377.16;5033224;28;20038;-55
2023/10/21 05:26:07;;;;;;;16.85;10.25;;;;;;;12.46;100.00;98451.06;5033822;28;20044;-57
2023/10/21 05:28:32;;;;;;;18.35;10.65;;;;;;;12.47;100.00;98469.38;5035149;28;20509;-53
2023/10/21 05:30:58;;;;;;;16.02;9.32;;;;;;;12.49;100.00;98466.66;5033765;28;20033;-56
2023/10/21 05:33:24;;;;;;;16.30;10.10;;;;;;;12.50;100.00;98479.69;5035073;28;20037;-57
2023/10/21 05:35:49;;;;;;;16.55;9.77;;;;;;;12.43;100.00;98468.78;5028792;28;20053;-54
2023/10/21 05:38:14;;;;;;;16.92;9.95;;;;;;;12.52;100.00;98471.69;5034611;28;20451;-54
2023/10/21 05:40:41;;;;;;;17.08;9.85;;;;;;;12.51;100.00;98478.75;5035073;28;20032;-52
2023/10/21 05:43:06;;;;;;;17.98;9.75;;;;;;;12.52;100.00;98477.78;5034900;28;20488;-52
2023/10/21 05:45:32;;;;;;;17.33;9.85;;;;;;;12.53;100.00;98483.91;5034676;28;20064;-55
2023/10/21 05:47:57;;;;;;;22.73;10.55;;;;;;;12.52;100.00;98498.06;5033103;28;20037;-49
2023/10/21 05:50:24;;;;;;;21.08;11.10;;;;;;;12.09;100.00;98424.00;5032866;28;20065;-51
2023/10/21 05:52:51;;;;;;;15.07;10.32;;;;;;;11.61;100.00;98373.22;5029472;28;20033;-55
2023/10/21 05:55:19;;;;;;;18.17;10.07;;;;;;;12.49;100.00;98498.31;5034086;28;20476;-53
2023/10/21 05:57:45;;;;;;;16.42;10.73;;;;;;;12.50;100.00;98508.72;5032754;28;20481;-52
2023/10/21 06:00:11;;;;;;;19.40;10.40;;;;;;;12.52;100.00;98511.25;5034619;28;20033;-53
2023/10/21 06:02:37;;;;;;;18.77;10.45;;;;;;;12.14;100.00;98450.91;5029972;28;20029;-52
2023/10/21 06:05:05;;;;;;;18.80;10.73;;;;;;;12.13;100.00;98463.22;5049489;28;20209;-53
2023/10/21 06:07:30;;;;;;;20.05;11.07;;;;;;;12.16;100.00;98462.16;5031201;28;20055;-58
2023/10/21 06:09:56;;;;;;;20.17;11.13;;;;;;;12.55;100.00;98522.41;5009169;28;20030;-53
2023/10/21 06:12:21;;;;;;;19.63;11.43;;;;;;;12.35;100.00;98494.06;5013081;28;20444;-55
2023/10/21 06:14:47;;;;;;;20.85;11.98;;;;;;;12.57;100.00;98538.13;5009739;28;20046;-54
2023/10/21 06:17:12;;;;;;;19.67;12.68;;;;;;;12.57;100.00;98541.63;5008514;28;20038;-54
2023/10/21 06:19:38;;;;;;;19.88;11.98;;;;;;;12.20;100.00;98485.53;5009757;28;20034;-56
2023/10/21 06:22:03;;;;;;;17.88;11.05;;;;;;;12.52;100.00;98535.84;5009348;28;20040;-55
2023/10/21 06:24:29;;;;;;;17.23;11.63;;;;;;;12.20;100.00;98492.63;5021874;28;20034;-57
2023/10/21 06:26:55;;;;;;;17.08;11.00;;;;;;;12.57;100.00;98565.38;5007902;28;20038;-54
2023/10/21 06:29:23;;;;;;;16.00;10.60;;;;;;;12.59;100.00;98555.53;5007968;28;20155;-56
2023/10/21 06:31:49;;;;;;;20.55;12.02;;;;;;;12.24;100.00;98501.97;5007852;28;20113;-53
2023/10/21 06:34:14;;;;;;;16.15;11.32;;;;;;;12.25;100.00;98507.16;5022519;28;20128;-56
2023/10/21 06:36:40;;;;;;;17.35;10.98;;;;;;;12.60;100.00;98556.38;5009107;28;20081;-55
2023/10/21 06:39:05;;;;;;;23.77;11.88;;;;;;;12.24;100.00;98505.44;5007865;28;20045;-54
2023/10/21 06:41:31;;;;;;;20.48;12.77;;;;;;;12.65;100.00;98572.69;5007319;28;20061;-54
2023/10/21 06:43:59;;;;;;;19.83;12.20;;;;;;;12.68;100.00;98578.59;5008885;28;20073;-52
2023/10/21 06:46:24;;;;;;;17.08;10.68;;;;;;;12.32;100.00;98515.41;5013993;28;20038;-56
2023/10/21 06:48:50;;;;;;;16.27;10.82;;;;;;;12.72;100.00;98590.59;5029304;28;20042;-56
2023/10/21 06:51:16;;;;;;;15.70;10.02;;;;;;;12.72;100.00;98603.78;5013958;28;20034;-55
2023/10/21 06:53:42;;;;;;;17.38;10.88;;;;;;;12.73;100.00;98600.19;5013564;28;20065;-55
2023/10/21 06:56:12;;;;;;;17.92;10.95;;;;;;;12.75;100.00;98611.47;5013704;28;20070;-51
2023/10/21 06:58:39;;;;;;;19.52;12.07;;;;;;;12.82;100.00;98620.59;5021763;28;20065;-54
2023/10/21 07:01:04;;;;;;;16.92;10.55;;;;;;;12.86;100.00;98616.78;5042436;28;20588;-56
2023/10/21 07:03:30;;;;;;;19.40;10.27;;;;;;;12.91;100.00;98621.69;5005587;28;20062;-55
2023/10/21 07:05:55;;;;;;;15.90;9.55;;;;;;;12.65;100.00;98570.06;5005332;28;20034;-55
2023/10/21 07:08:20;;;;;;;12.38;8.93;;;;;;;12.93;100.00;98636.44;5008319;28;20495;-54
2023/10/21 07:10:46;;;;;;;13.70;9.60;;;;;;;12.95;100.00;98639.00;5007264;28;20038;-57
2023/10/21 07:13:11;;;;;;;12.77;8.93;;;;;;;12.97;100.00;98637.06;5009235;28;20061;-56
2023/10/21 07:15:36;;;;;;;14.00;8.35;;;;;;;13.01;100.00;98637.69;5030966;28;20136;-56
2023/10/21 07:18:02;;;;;;;10.57;8.68;;;;;;;12.97;100.00;98637.91;5032201;28;20034;-50
2023/10/21 07:20:27;;;;;;;15.43;9.30;;;;;;;12.57;100.00;98561.88;5032972;28;20480;-54
2023/10/21 07:22:54;;;;;;;15.98;8.15;;;;;;;13.02;100.00;98636.72;5032739;28;20041;-52
2023/10/21 07:25:19;;;;;;;20.08;9.38;;;;;;;12.77;100.00;98596.34;5032891;28;20041;-56
2023/10/21 07:27:45;;;;;;;13.40;9.18;;;;;;;13.01;100.00;98621.84;5048359;28;20090;-55
2023/10/21 07:30:11;;;;;;;18.10;8.23;;;;;;;12.96;100.00;98627.44;5028141;28;20044;-55
2023/10/21 07:32:37;;;;;;;13.57;9.07;;;;;;;13.14;100.00;98663.06;5030012;28;20116;-52
2023/10/21 07:35:03;;;;;;;15.38;10.10;;;;;;;12.80;100.00;98601.41;5030979;28;20092;-58
2023/10/21 07:37:30;;;;;;;10.57;8.02;;;;;;;13.21;100.00;98664.28;5023178;28;20036;-56
2023/10/21 07:39:55;;;;;;;13.00;8.15;;;;;;;12.86;100.00;98610.66;4992034;28;20034;-56
2023/10/21 07:42:21;;;;;;;13.88;7.13;;;;;;;12.85;100.00;98609.81;4991849;28;20141;-57
2023/10/21 07:44:47;;;;;;;10.13;6.50;;;;;;;13.27;100.00;98682.28;4993299;28;20038;-55
2023/10/21 07:47:13;;;;;;;11.85;7.20;;;;;;;12.88;100.00;98612.22;4993037;28;20045;-53
2023/10/21 07:49:38;;;;;;;10.23;5.75;;;;;;;13.14;100.00;98649.00;4992872;28;20030;-56
2023/10/21 07:52:04;;;;;;;13.50;6.88;;;;;;;13.31;100.00;98683.72;4959582;28;20040;-56
2023/10/21 07:54:29;;;;;;;7.43;5.78;;;;;;;13.31;100.00;98688.19;4993199;28;20044;-52
2023/10/21 07:56:54;;;;;;;9.60;6.20;;;;;;;12.88;100.00;98630.69;4992851;28;20473;-56
2023/10/21 07:59:21;;;;;;;9.63;6.05;;;;;;;12.71;100.00;98611.81;4992965;28;20531;-51
2023/10/21 08:01:46;;;;;;;8.55;5.55;;;;;;;12.85;100.00;98638.00;4992826;28;20034;-55
2023/10/21 08:04:11;;;;;;;9.55;5.38;;;;;;;13.11;100.00;98705.53;4992024;28;20162;-53
2023/10/21 08:06:38;;;;;;;8.10;5.47;;;;;;;13.13;100.00;98708.94;4991672;28;20125;-57
2023/10/21 08:09:04;;;;;;;10.48;5.20;;;;;;;13.07;100.00;98685.59;4991722;28;20046;-56
2023/10/21 08:11:30;;;;;;;11.35;6.20;;;;;;;12.90;100.00;98654.34;4991713;28;20038;-56
2023/10/21 08:13:55;;;;;;;10.25;6.20;;;;;;;13.32;100.00;98718.91;4992764;28;20122;-55
2023/10/21 08:16:21;;;;;;;9.93;6.00;;;;;;;13.35;100.00;98732.75;4992712;28;20106;-53
2023/10/21 08:18:46;;;;;;;11.38;5.95;;;;;;;13.37;100.00;98732.59;4992701;28;20113;-56
2023/10/21 08:21:13;;;;;;;5.88;4.18;;;;;;;13.28;100.00;98731.50;4993067;28;20038;-56
2023/10/21 08:23:38;;;;;;;6.15;4.50;;;;;;;13.22;100.00;98744.38;4992920;28;20069;-56
2023/10/21 08:26:04;;;;;;;4.35;3.92;;;;;;;12.84;100.00;98689.97;4992754;28;20050;-56
2023/10/21 08:28:30;;;;;;;5.55;3.42;;;;;;;13.09;100.00;98735.69;4993835;28;20140;-57
2023/10/21 08:30:55;;;;;;;6.35;3.38;;;;;;;12.89;100.00;98687.84;4996551;28;20046;-56
2023/10/21 08:33:20;;;;;;;4.00;2.55;;;;;;;13.32;100.00;98762.03;4996754;28;20045;-55
2023/10/21 08:35:46;;;;;;;3.58;2.40;;;;;;;13.04;100.00;98716.69;4996471;28;20409;-56
2023/10/21 08:38:13;;;;;;;3.28;1.98;;;;;;;12.93;100.00;98702.47;4995616;28;20046;-52
2023/10/21 08:40:39;;;;;;;4.47;1.80;;;;;;;13.17;100.00;98728.84;4996637;28;20049;-58
2023/10/21 08:43:05;;;;;;;3.05;1.80;;;;;;;13.48;100.00;98780.22;4995409;28;20396;-56
2023/10/21 08:45:31;;;;;;;6.63;1.80;;;;;;;13.13;100.00;98713.38;4995163;28;20038;-58
2023/10/21 08:47:57;;;;;;;2.83;1.60;;;;;;;13.20;100.00;98744.47;4995509;28;20034;-57
2023/10/21 08:50:24;;;;;;;4.18;1.60;;;;;;;13.36;100.00;98773.22;4996514;28;20112;-58
2023/10/21 08:52:50;;;;;;;3.42;1.35;;;;;;;13.20;100.00;98757.69;4995238;28;20121;-52
2023/10/21 08:55:15;;;;;;;1.40;1.30;;;;;;;13.08;100.00;98733.97;4994940;28;20045;-54
2023/10/21 08:57:41;;;;;;;4.18;1.75;;;;;;;13.09;100.00;98748.88;4995067;28;20441;-56
2023/10/21 09:00:09;;;;;;;2.80;1.60;;;;;;;13.16;100.00;98742.19;4996622;28;20129;-52
2023/10/21 09:02:34;;;;;;;2.03;1.40;;;;;;;13.52;100.00;98811.56;4996509;28;20031;-56
2023/10/21 09:05:00;;;;;;;1.92;1.10;;;;;;;13.29;100.00;98769.34;4996077;28;20037;-57
2023/10/21 09:07:43;;;;;;;2.42;1.30;;;;;;;13.62;100.00;98832.88;4996507;28;20370;-56
2023/10/21 09:10:09;;;;;;;1.77;1.40;;;;;;;13.29;100.00;98769.34;4996262;28;20058;-57
2023/10/21 09:12:34;;;;;;;2.38;1.20;;;;;;;13.69;100.00;98849.09;4995989;28;20093;-58
2023/10/21 09:15:00;;;;;;;3.92;1.50;;;;;;;13.71;100.00;98849.81;4994547;28;20458;-58
2023/10/21 09:17:36;;;;;;;3.42;1.33;;;;;;;13.67;100.00;98846.56;4996458;28;20489;-61
2023/10/21 09:20:11;;;;;;;2.85;1.15;;;;;;;13.77;100.00;98860.78;4996141;28;20034;-61
2023/10/21 09:22:37;;;;;;;3.10;1.33;;;;;;;13.78;100.00;98856.31;4995986;28;20034;-61
2023/10/21 09:25:19;;;;;;;2.70;1.20;;;;;;;13.82;100.00;98876.28;4995868;28;20046;-61
2023/10/21 09:27:53;;;;;;;15.13;6.90;;;;;;;13.49;100.00;98824.16;4994796;28;20118;-61
2023/10/21 09:30:20;;;;;;;3.58;1.50;;;;;;;13.56;100.00;98830.69;4995937;28;20089;-60
2023/10/21 09:32:46;;;;;;;2.17;1.55;;;;;;;13.84;100.00;98879.66;4996089;28;20388;-59
2023/10/21 09:35:13;;;;;;;3.22;1.80;;;;;;;13.94;100.00;98896.50;4994474;28;20034;-59
2023/10/21 09:37:38;;;;;;;4.88;1.85;;;;;;;13.99;100.00;98904.94;4995753;28;20074;-59
2023/10/21 09:40:06;;;;;;;3.63;1.85;;;;;;;13.73;100.00;98853.19;4994846;28;20073;-61
2023/10/21 09:42:35;;;;;;;3.05;1.35;;;;;;;13.81;100.00;98854.28;4995806;28;20034;-60
2023/10/21 09:45:03;;;;;;;2.25;1.23;;;;;;;14.29;100.00;98921.09;4994588;28;20057;-58
2023/10/21 09:47:29;;;;;;;5.45;1.98;;;;;;;14.56;100.00;98931.38;4995740;28;20481;-54
2023/10/21 09:49:56;;;;;;;4.95;1.58;;;;;;;14.48;100.00;98888.75;4995368;28;20077;-57
2023/10/21 09:52:29;;;;;;;2.90;1.60;;;;;;;14.39;100.00;98871.78;4994551;28;20034;-54
2023/10/21 09:55:07;;;;;;;7.28;1.70;;;;;;;14.83;100.00;98945.06;4994951;28;20093;-56
2023/10/21 09:57:37;;;;;;;6.57;2.75;;;;;;;14.96;100.00;98935.19;4995490;28;20034;-55
2023/10/21 10:00:04;;;;;;;2.88;0.90;;;;;;;14.90;100.00;98929.53;4995296;28;20031;-55
2023/10/21 10:02:30;;;;;;;1.33;0.70;;;;;;;14.69;100.00;98896.78;4995329;28;20045;-58
2023/10/21 10:04:57;;;;;;;1.77;0.82;;;;;;;15.04;100.00;98955.75;4994869;28;20064;-57
2023/10/21 10:07:22;;;;;;;3.10;0.95;;;;;;;14.78;100.00;98899.56;4994229;28;20030;-56
2023/10/21 10:09:48;;;;;;;3.15;1.30;;;;;;;15.22;100.00;98964.88;4993982;28;20030;-58
2023/10/21 10:12:20;;;;;;;3.88;0.75;;;;;;;15.21;100.00;98968.47;4993870;28;20038;-58
2023/10/21 10:14:45;;;;;;;3.30;1.30;;;;;;;15.31;100.00;98958.81;4993679;28;20042;-56
2023/10/21 10:17:13;;;;;;;4.57;1.00;;;;;;;15.28;100.00;98979.44;4993971;28;20477;-56
2023/10/21 10:19:40;;;;;;;5.32;1.05;;;;;;;15.30;100.00;98988.09;4994988;28;20084;-56
2023/10/21 10:22:28;;;;;;;2.63;0.77;;;;;;;15.11;100.00;98933.09;4993900;28;20084;-58
2023/10/21 10:25:15;;;;;;;2.47;0.70;;;;;;;15.54;100.00;98967.56;4994997;28;20441;-58
2023/10/21 10:27:42;;;;;;;5.45;0.90;;;;;;;15.35;100.00;98973.53;4993825;28;20393;-58
2023/10/21 10:30:30;;;;;;;2.17;0.82;;;;;;;15.48;100.00;98978.69;4994987;28;20061;-57
2023/10/21 10:32:56;;;;;;;1.60;0.73;;;;;;;15.32;100.00;98933.16;4994461;28;20038;-55
2023/10/21 10:35:30;;;;;;;3.70;0.98;;;;;;;15.65;100.00;98988.75;4994435;28;20045;-58
2023/10/21 10:37:56;;;;;;;2.45;0.88;;;;;;;15.64;100.00;98987.09;4993048;28;20034;-56
2023/10/21 10:40:32;;;;;;;3.70;1.00;;;;;;;15.37;100.00;98990.16;4993463;28;20034;-57
2023/10/21 10:42:58;;;;;;;4.88;1.40;;;;;;;15.46;100.00;99002.66;4994403;28;20045;-56
2023/10/21 10:45:23;;;;;;;3.03;0.90;;;;;;;15.65;100.00;98991.41;4993132;28;20389;-61
2023/10/21 10:48:00;;;;;;;4.65;1.23;;;;;;;15.91;100.00;99010.47;4994472;28;20119;-62
2023/10/21 10:50:26;;;;;;;3.88;0.95;;;;;;;15.98;100.00;99001.03;4992731;28;20122;-62
2023/10/21 10:52:53;;;;;;;4.28;1.35;;;;;;;16.01;100.00;98982.22;4993768;28;20125;-62
2023/10/21 10:55:19;;;;;;;4.72;1.17;;;;;;;16.32;100.00;99016.66;4992789;28;20034;-61
2023/10/21 10:57:44;;;;;;;4.35;1.42;;;;;;;16.33;100.00;98962.59;4994503;28;20038;-62
2023/10/21 11:00:12;;;;;;;3.33;1.00;;;;;;;16.94;100.00;99021.09;4993540;28;20125;-59
2023/10/21 11:02:42;;;;;;;2.10;0.73;;;;;;;17.10;100.00;99016.13;4991878;28;20030;-60
2023/10/21 11:05:08;;;;;;;4.85;1.20;;;;;;;16.86;100.00;98975.75;4992761;28;20425;-58
2023/10/21 11:07:35;;;;;;;7.05;1.35;;;;;;;16.68;100.00;98987.97;4993900;28;20045;-59
2023/10/21 11:10:01;;;;;;;3.67;1.10;;;;;;;17.01;100.00;99035.53;4992530;28;20093;-58